Terminal Aerodrome Forecast
Issued by NWS Cleveland, OH

Home | Current Version | Previous Version | Graphics & Text | Print | Product List | Glossary On
Versions: 1 2 3 4 5 6 7 8 9 10 11 12 13 14 15 16 17 18 19 20 21 22 23 24 25 26 27 28 29
000
FTUS41 KCLE 011100
TAFTOL
TAF
KTOL 011123Z 0112/0212 VRB03KT 2SM -SN OVC025
     FM011300 VRB03KT 6SM -SN OVC035
     FM011500 30004KT 2SM -SN SCT008 OVC015
     FM012000 25005KT P6SM OVC025
     FM020100 25006KT P6SM OVC050
     FM020600 26010KT P6SM OVC050=

USA.gov is the U.S. government's official web portal to all federal, state and local government web resources and services.